Time;durP1;ratioP1;P1;durP2;ratioP2;P2;SDS_P1;SDS_P2;PMS_P1;PMS_P2;Temp;Humidity;BMP_temperature;BMP_pressure;BME280_temperature;BME280_humidity;BME280_pressure;Samples;Min_cycle;Max_cycle;Signal;HPM_P1;HPM_P2
2022/05/04 00:00:09;;;;;;;8.93;4.60;;;8.90;99.90;;;;;;5031468;28;20096;-73
2022/05/04 00:02:36;;;;;;;15.00;5.63;;;8.90;99.90;;;;;;5032421;28;20036;-73
2022/05/04 00:05:02;;;;;;;5.35;4.35;;;8.90;99.90;;;;;;5032374;28;20087;-72
2022/05/04 00:07:28;;;;;;;10.38;4.45;;;8.80;99.90;;;;;;5031884;28;20032;-73
2022/05/04 00:09:55;;;;;;;7.97;4.55;;;8.80;99.90;;;;;;5032157;28;20029;-73
2022/05/04 00:12:21;;;;;;;8.13;5.25;;;8.80;99.90;;;;;;5032515;28;20032;-73
2022/05/04 00:14:47;;;;;;;7.95;4.70;;;8.90;99.90;;;;;;5031746;28;20048;-73
2022/05/04 00:17:13;;;;;;;7.18;4.40;;;8.90;99.90;;;;;;5032920;28;20399;-73
2022/05/04 00:19:38;;;;;;;8.25;5.15;;;8.80;99.90;;;;;;5031737;28;20041;-73
2022/05/04 00:22:04;;;;;;;7.65;4.80;;;8.90;99.90;;;;;;5032070;28;20079;-73
2022/05/04 00:24:29;;;;;;;10.73;5.32;;;8.90;99.90;;;;;;5032338;28;20030;-73
2022/05/04 00:26:55;;;;;;;14.40;5.22;;;8.80;99.90;;;;;;5031183;28;20021;-73
2022/05/04 00:29:20;;;;;;;9.68;4.63;;;8.80;99.90;;;;;;5032134;28;20062;-73
2022/05/04 00:31:46;;;;;;;10.02;4.55;;;8.70;99.90;;;;;;5032218;28;20052;-73
2022/05/04 00:34:11;;;;;;;10.98;4.70;;;8.80;99.90;;;;;;5031443;28;20112;-72
2022/05/04 00:36:37;;;;;;;6.22;4.97;;;8.90;99.90;;;;;;5032391;28;20037;-72
2022/05/04 00:39:02;;;;;;;9.82;5.18;;;8.80;99.90;;;;;;5031630;28;20041;-73
2022/05/04 00:41:28;;;;;;;9.45;5.07;;;8.70;99.90;;;;;;5033059;28;20028;-73
2022/05/04 00:43:54;;;;;;;12.32;5.50;;;8.70;99.90;;;;;;5035870;28;20045;-73
2022/05/04 00:46:21;;;;;;;8.20;5.07;;;8.70;99.90;;;;;;5036046;28;20032;-73
2022/05/04 00:48:49;;;;;;;8.45;4.90;;;8.70;99.90;;;;;;5035538;28;20029;-73
2022/05/04 00:51:15;;;;;;;8.75;5.05;;;8.70;99.90;;;;;;5036132;28;20108;-73
2022/05/04 00:53:42;;;;;;;10.82;5.43;;;8.70;99.90;;;;;;5035949;28;20116;-72
2022/05/04 00:56:11;;;;;;;10.02;5.32;;;8.70;99.90;;;;;;5034883;28;20431;-73
2022/05/04 00:58:57;;;;;;;8.25;5.28;;;8.70;99.90;;;;;;5035761;28;20026;-73
2022/05/04 01:01:30;;;;;;;9.07;5.10;;;8.60;99.90;;;;;;5036139;28;20223;-73
2022/05/04 01:03:57;;;;;;;10.43;4.82;;;8.70;99.90;;;;;;5034952;28;20037;-73
2022/05/04 01:06:23;;;;;;;12.98;5.57;;;8.60;99.90;;;;;;5036074;28;20068;-73
2022/05/04 01:08:50;;;;;;;12.95;5.68;;;8.60;99.90;;;;;;5035112;28;20112;-73
2022/05/04 01:11:17;;;;;;;7.38;4.90;;;8.60;99.90;;;;;;5035776;28;20045;-73
2022/05/04 01:13:43;;;;;;;12.05;5.60;;;8.60;99.90;;;;;;5035996;28;20456;-72
2022/05/04 01:16:09;;;;;;;13.05;5.13;;;8.60;99.90;;;;;;5034895;28;20029;-73
2022/05/04 01:18:35;;;;;;;6.43;5.03;;;8.70;99.90;;;;;;5035711;28;20025;-72
2022/05/04 01:21:02;;;;;;;8.98;5.18;;;8.70;99.90;;;;;;5035336;28;20034;-73
2022/05/04 01:23:28;;;;;;;11.50;5.50;;;8.70;99.90;;;;;;5034693;28;20536;-73
2022/05/04 01:25:54;;;;;;;6.78;5.13;;;8.70;99.90;;;;;;5034925;28;20042;-73
2022/05/04 01:28:20;;;;;;;13.20;5.60;;;8.70;99.90;;;;;;5035448;28;20025;-73
2022/05/04 01:30:45;;;;;;;7.75;4.47;;;8.80;99.90;;;;;;5034609;28;20082;-72
2022/05/04 01:33:11;;;;;;;9.15;5.38;;;8.70;99.90;;;;;;5034919;28;20052;-72
2022/05/04 01:35:37;;;;;;;10.98;5.40;;;8.70;99.90;;;;;;5035191;28;20053;-73
2022/05/04 01:38:02;;;;;;;6.75;4.95;;;8.60;99.90;;;;;;5034190;28;20018;-73
2022/05/04 01:40:28;;;;;;;11.55;4.95;;;8.60;99.90;;;;;;5034853;28;20355;-73
2022/05/04 01:42:54;;;;;;;9.35;5.05;;;8.60;99.90;;;;;;5034948;28;20113;-73
2022/05/04 01:45:19;;;;;;;14.65;6.20;;;8.60;99.90;;;;;;5034428;28;20025;-73
2022/05/04 01:47:49;;;;;;;8.43;4.85;;;8.60;99.90;;;;;;5034956;28;20030;-73
2022/05/04 01:50:15;;;;;;;8.30;5.03;;;8.50;99.90;;;;;;5034994;28;20026;-73
2022/05/04 01:52:40;;;;;;;9.95;4.72;;;8.50;99.90;;;;;;5034015;28;20608;-73
2022/05/04 01:55:10;;;;;;;12.00;4.45;;;8.50;99.90;;;;;;5034330;28;20101;-73
2022/05/04 01:57:36;;;;;;;8.15;4.95;;;8.50;99.90;;;;;;5035053;28;20100;-73
2022/05/04 02:00:02;;;;;;;7.35;5.07;;;8.60;99.90;;;;;;5033802;28;20072;-73
2022/05/04 02:02:29;;;;;;;8.23;4.28;;;8.60;99.90;;;;;;5034848;28;20061;-73
2022/05/04 02:04:55;;;;;;;10.57;4.13;;;8.60;99.90;;;;;;5034394;28;20507;-73
2022/05/04 02:07:21;;;;;;;10.63;4.40;;;8.50;99.90;;;;;;5033935;28;20021;-73
2022/05/04 02:09:46;;;;;;;6.95;4.80;;;8.60;99.90;;;;;;5034528;28;20029;-73
2022/05/04 02:12:12;;;;;;;11.25;4.32;;;8.50;99.90;;;;;;5033669;28;20060;-73
2022/05/04 02:14:38;;;;;;;7.50;4.78;;;8.40;99.90;;;;;;5034575;28;20030;-72
2022/05/04 02:17:04;;;;;;;10.27;5.47;;;8.50;99.90;;;;;;5034144;28;20082;-72
2022/05/04 02:19:30;;;;;;;7.88;4.68;;;8.40;99.90;;;;;;5033738;28;20077;-72
2022/05/04 02:21:56;;;;;;;14.80;5.30;;;8.40;99.90;;;;;;5033950;28;20060;-73
2022/05/04 02:24:21;;;;;;;9.20;4.40;;;8.40;99.90;;;;;;5027964;28;20025;-73
2022/05/04 02:26:47;;;;;;;7.60;4.30;;;8.40;99.90;;;;;;5033715;28;20026;-73
2022/05/04 02:29:12;;;;;;;14.10;4.53;;;8.40;99.90;;;;;;5034464;28;20450;-73
2022/05/04 02:31:38;;;;;;;7.72;5.20;;;8.30;99.90;;;;;;5034291;28;20026;-73
2022/05/04 02:34:03;;;;;;;6.65;4.47;;;8.20;99.90;;;;;;5033307;28;20075;-73
2022/05/04 02:39:13;;;;;;;5.28;4.07;;;8.10;99.90;;;;;;5033986;28;20040;-72
2022/05/04 02:41:39;;;;;;;9.20;4.90;;;8.00;99.90;;;;;;5033453;28;20022;-73
2022/05/04 02:44:04;;;;;;;5.93;4.18;;;7.90;99.90;;;;;;5033762;28;20025;-72
2022/05/04 02:46:30;;;;;;;7.78;4.45;;;7.80;99.90;;;;;;5034023;28;20025;-72
2022/05/04 02:48:56;;;;;;;7.00;4.25;;;7.80;99.90;;;;;;5032726;28;20022;-72
2022/05/04 02:51:22;;;;;;;6.60;4.45;;;7.80;99.90;;;;;;5033719;28;20488;-72
2022/05/04 02:53:47;;;;;;;7.53;4.70;;;7.70;99.90;;;;;;5033419;28;20026;-72
2022/05/04 02:56:15;;;;;;;11.43;5.85;;;7.70;99.90;;;;;;5032821;28;20041;-72
2022/05/04 02:58:42;;;;;;;9.43;4.43;;;7.60;99.90;;;;;;5033577;28;20029;-72
2022/05/04 03:02:26;;;;;;;5.68;4.43;;;7.50;99.90;;;;;;5033384;28;20033;-72
2022/05/04 03:03:53;;;;;;;13.65;4.90;;;7.50;99.90;;;;;;5032598;28;20038;-72
2022/05/04 03:06:19;;;;;;;9.25;4.93;;;7.50;99.90;;;;;;5033700;28;20034;-72
2022/05/04 03:08:44;;;;;;;13.02;4.68;;;7.50;99.90;;;;;;5032769;28;20046;-72
2022/05/04 03:13:54;;;;;;;8.65;4.82;;;7.40;99.90;;;;;;5032984;28;20092;-72
2022/05/04 03:16:19;;;;;;;8.07;4.55;;;7.40;99.90;;;;;;5032616;28;20017;-73
2022/05/04 03:18:45;;;;;;;9.35;5.10;;;7.40;99.90;;;;;;5033049;28;20036;-73
2022/05/04 03:21:10;;;;;;;9.18;4.30;;;7.40;99.90;;;;;;5033021;28;20057;-73
2022/05/04 03:23:36;;;;;;;10.25;5.20;;;7.40;99.90;;;;;;5032653;28;20031;-73
2022/05/04 03:26:01;;;;;;;7.80;5.22;;;7.40;99.90;;;;;;5032877;28;20470;-73
2022/05/04 03:28:27;;;;;;;7.38;5.53;;;7.30;99.90;;;;;;5033040;28;20033;-73
2022/05/04 03:30:52;;;;;;;7.65;4.72;;;7.30;99.90;;;;;;5032041;28;20029;-73
2022/05/04 03:33:18;;;;;;;10.25;4.70;;;7.20;99.90;;;;;;5033667;28;20017;-72
2022/05/04 03:35:43;;;;;;;5.40;4.53;;;7.20;99.90;;;;;;5033184;28;20385;-73
2022/05/04 03:38:09;;;;;;;16.52;5.40;;;7.20;99.90;;;;;;5032026;28;20393;-73
2022/05/04 03:40:34;;;;;;;9.23;5.28;;;7.20;99.90;;;;;;5032797;28;20033;-73
2022/05/04 03:43:00;;;;;;;11.80;4.80;;;7.20;99.90;;;;;;5032579;28;20040;-72
2022/05/04 03:45:27;;;;;;;7.57;4.97;;;7.10;99.90;;;;;;5031982;28;20022;-72
2022/05/04 03:47:53;;;;;;;10.63;4.40;;;7.10;99.90;;;;;;5032647;28;20031;-72
2022/05/04 03:50:18;;;;;;;5.85;4.63;;;7.00;99.90;;;;;;5032799;28;20477;-72
2022/05/04 03:52:44;;;;;;;8.80;5.00;;;7.10;99.90;;;;;;5032242;28;20481;-72
2022/05/04 03:55:09;;;;;;;7.07;4.85;;;7.10;99.90;;;;;;5031912;28;20017;-72
2022/05/04 03:57:35;;;;;;;11.13;5.18;;;7.10;99.90;;;;;;5031772;28;20057;-72
2022/05/04 04:00:00;;;;;;;12.30;4.80;;;7.00;99.90;;;;;;5031931;28;20033;-73
2022/05/04 04:02:26;;;;;;;13.70;4.43;;;7.10;99.90;;;;;;5032465;28;20021;-72
2022/05/04 04:04:52;;;;;;;8.23;5.30;;;7.10;99.90;;;;;;5031519;28;20088;-72
2022/05/04 04:07:17;;;;;;;7.72;4.93;;;7.10;99.90;;;;;;5032120;28;20026;-73
2022/05/04 04:09:43;;;;;;;16.67;6.28;;;7.00;99.90;;;;;;5032226;28;20040;-72
2022/05/04 04:12:09;;;;;;;7.40;4.55;;;7.00;99.90;;;;;;5031323;28;20458;-72
2022/05/04 04:14:34;;;;;;;8.50;4.90;;;7.00;99.90;;;;;;5031514;28;20033;-72
2022/05/04 04:17:00;;;;;;;12.52;5.28;;;6.90;99.90;;;;;;5031440;28;20100;-72
2022/05/04 04:19:25;;;;;;;9.23;4.93;;;6.90;99.90;;;;;;5031581;28;20493;-72
2022/05/04 04:21:52;;;;;;;7.95;4.40;;;6.90;99.90;;;;;;5031918;28;20119;-72
2022/05/04 04:24:18;;;;;;;13.30;4.43;;;6.90;99.90;;;;;;5032351;28;20057;-73
2022/05/04 04:26:43;;;;;;;12.75;5.18;;;6.80;99.90;;;;;;5031468;28;20080;-73
2022/05/04 04:29:09;;;;;;;7.43;4.65;;;6.80;99.90;;;;;;5031627;28;20175;-73
2022/05/04 04:31:34;;;;;;;12.77;5.45;;;6.80;99.90;;;;;;5032186;28;20539;-73
2022/05/04 04:34:01;;;;;;;9.73;4.60;;;6.80;99.90;;;;;;5030891;28;20485;-73
2022/05/04 04:36:27;;;;;;;6.75;4.65;;;6.80;99.90;;;;;;5032150;28;20030;-73
2022/05/04 04:38:52;;;;;;;11.18;4.85;;;6.80;99.90;;;;;;5031587;28;20044;-71
2022/05/04 04:41:18;;;;;;;9.25;4.60;;;6.80;99.90;;;;;;5031441;28;20087;-73
2022/05/04 04:43:43;;;;;;;11.13;4.93;;;6.80;99.90;;;;;;5031683;28;20129;-73
2022/05/04 04:46:09;;;;;;;13.05;5.80;;;6.80;99.90;;;;;;5031814;28;20101;-73
2022/05/04 04:48:34;;;;;;;9.95;4.13;;;6.80;99.90;;;;;;5031316;28;20029;-73
2022/05/04 04:51:00;;;;;;;9.18;4.80;;;6.90;99.90;;;;;;5031664;28;20017;-72
2022/05/04 04:53:26;;;;;;;7.18;4.65;;;6.90;99.90;;;;;;5031921;28;20109;-72
2022/05/04 04:55:51;;;;;;;9.07;4.60;;;6.90;99.90;;;;;;5030859;28;20414;-71
2022/05/04 04:58:17;;;;;;;12.35;5.15;;;6.90;99.90;;;;;;5031809;28;20033;-73
2022/05/04 05:00:42;;;;;;;6.72;5.07;;;6.90;99.90;;;;;;5031835;28;20047;-72
2022/05/04 05:03:08;;;;;;;12.77;5.32;;;6.90;99.90;;;;;;5031020;28;20030;-73
2022/05/04 05:05:34;;;;;;;9.52;4.78;;;7.00;99.90;;;;;;5031875;28;20053;-73
2022/05/04 05:08:00;;;;;;;14.13;4.82;;;7.10;99.90;;;;;;5030634;28;20417;-73
2022/05/04 05:10:25;;;;;;;10.32;4.75;;;7.10;99.90;;;;;;5031711;28;20029;-73
2022/05/04 05:12:51;;;;;;;9.90;4.82;;;7.10;99.90;;;;;;5031309;28;20501;-73
2022/05/04 05:18:03;;;;;;;12.07;5.30;;;7.20;99.90;;;;;;5031625;28;20492;-74
2022/05/04 05:20:30;;;;;;;14.93;4.90;;;7.30;99.90;;;;;;5031581;28;20045;-73
2022/05/04 05:23:00;;;;;;;15.13;5.35;;;7.30;99.90;;;;;;5030573;28;20095;-72
2022/05/04 05:25:25;;;;;;;14.43;5.43;;;7.40;99.90;;;;;;5031591;28;20061;-72
2022/05/04 05:27:51;;;;;;;11.23;5.18;;;7.40;99.90;;;;;;5033480;28;20430;-72
2022/05/04 05:30:16;;;;;;;9.18;5.05;;;7.50;99.90;;;;;;5034705;28;20116;-73
2022/05/04 05:32:42;;;;;;;12.05;5.43;;;7.50;99.90;;;;;;5035304;28;20479;-73
2022/05/04 05:35:08;;;;;;;14.80;5.28;;;7.60;99.90;;;;;;5034882;28;20057;-73
2022/05/04 05:37:33;;;;;;;9.45;4.80;;;7.60;99.90;;;;;;5034286;28;20021;-73
2022/05/04 05:39:59;;;;;;;6.72;4.13;;;7.70;99.90;;;;;;5034441;28;20112;-73
2022/05/04 05:42:31;;;;;;;16.20;5.35;;;7.80;99.90;;;;;;5035076;28;20473;-73
2022/05/04 05:44:56;;;;;;;11.32;4.40;;;7.80;99.90;;;;;;5033986;28;20116;-73
2022/05/04 05:47:22;;;;;;;11.20;4.50;;;7.80;99.90;;;;;;5034941;28;20121;-73
2022/05/04 05:49:47;;;;;;;9.93;5.03;;;7.80;99.90;;;;;;5034692;28;20036;-73
2022/05/04 05:52:13;;;;;;;8.38;4.82;;;7.90;99.90;;;;;;5034114;28;20470;-73
2022/05/04 05:54:38;;;;;;;14.30;5.32;;;8.00;99.90;;;;;;5034560;28;20412;-73
2022/05/04 05:57:04;;;;;;;18.30;4.60;;;8.00;99.90;;;;;;5034020;28;20066;-73
2022/05/04 05:59:30;;;;;;;25.33;5.00;;;8.10;99.90;;;;;;5034404;28;20038;-73
2022/05/04 06:01:56;;;;;;;11.88;5.47;;;8.20;99.90;;;;;;5034413;28;20047;-73
2022/05/04 06:04:21;;;;;;;8.63;4.65;;;8.20;99.90;;;;;;5033723;28;20087;-73
2022/05/04 06:06:47;;;;;;;6.25;3.90;;;8.30;99.90;;;;;;5034416;28;20037;-73
2022/05/04 06:09:13;;;;;;;12.15;4.95;;;8.30;99.90;;;;;;5034322;28;20523;-73
2022/05/04 06:11:38;;;;;;;13.18;5.28;;;8.30;99.90;;;;;;5033852;28;20024;-73
2022/05/04 06:14:04;;;;;;;11.68;4.40;;;8.40;99.90;;;;;;5034028;28;20033;-73
2022/05/04 06:16:30;;;;;;;15.38;5.10;;;8.50;99.90;;;;;;5034519;28;20041;-73
2022/05/04 06:18:55;;;;;;;17.27;5.93;;;8.50;99.90;;;;;;5033267;28;20510;-73
2022/05/04 06:21:21;;;;;;;13.27;4.18;;;8.60;99.90;;;;;;5034155;28;20045;-73
2022/05/04 06:23:46;;;;;;;10.25;3.95;;;8.70;99.90;;;;;;5034068;28;20057;-73
2022/05/04 06:26:13;;;;;;;5.78;4.40;;;8.70;99.90;;;;;;5033201;28;20032;-73
2022/05/04 06:28:38;;;;;;;13.77;4.43;;;8.70;99.90;;;;;;5034243;28;20060;-72
2022/05/04 06:34:06;;;;;;;9.68;4.03;;;8.90;99.90;;;;;;5033236;28;20572;-72
2022/05/04 06:36:35;;;;;;;20.88;5.05;;;8.90;99.90;;;;;;5034169;28;20120;-73
2022/05/04 06:39:01;;;;;;;11.07;4.57;;;9.00;99.90;;;;;;5032458;28;20033;-73
2022/05/04 06:41:27;;;;;;;7.82;3.88;;;9.10;99.90;;;;;;5033301;28;20029;-72
2022/05/04 06:43:53;;;;;;;12.25;4.50;;;9.00;99.90;;;;;;5033602;28;20087;-73
2022/05/04 06:46:18;;;;;;;10.82;5.22;;;9.10;99.90;;;;;;5033549;28;20490;-72
2022/05/04 06:48:45;;;;;;;11.70;4.82;;;9.10;99.90;;;;;;5033252;28;20036;-72
2022/05/04 06:51:11;;;;;;;14.68;4.03;;;9.10;99.90;;;;;;5033500;28;20033;-73
2022/05/04 06:53:37;;;;;;;13.80;4.43;;;9.20;99.90;;;;;;5033017;28;20029;-73
2022/05/04 06:56:03;;;;;;;10.05;4.22;;;9.30;99.90;;;;;;5033209;28;20042;-73
2022/05/04 06:58:28;;;;;;;16.33;4.50;;;9.30;99.90;;;;;;5033300;28;20497;-73
2022/05/04 07:00:54;;;;;;;11.70;3.08;;;9.30;99.90;;;;;;5032450;28;20056;-73
2022/05/04 07:03:21;;;;;;;8.52;4.57;;;9.30;99.90;;;;;;5033448;28;20513;-74
2022/05/04 07:05:47;;;;;;;13.57;3.97;;;9.40;99.90;;;;;;5033573;28;20415;-74
2022/05/04 07:08:13;;;;;;;8.13;3.63;;;9.50;99.90;;;;;;5032617;28;20036;-74
2022/05/04 07:10:38;;;;;;;12.57;3.20;;;9.50;99.90;;;;;;5033471;28;20026;-74
2022/05/04 07:13:04;;;;;;;14.27;3.05;;;9.50;99.90;;;;;;5033087;28;20025;-74
2022/05/04 07:15:30;;;;;;;9.43;3.35;;;9.60;99.90;;;;;;5032662;28;20393;-75
2022/05/04 07:17:56;;;;;;;10.05;3.65;;;9.60;99.90;;;;;;5032712;28;20064;-74
2022/05/04 07:20:22;;;;;;;9.57;3.60;;;9.80;99.90;;;;;;5032795;28;20037;-73
2022/05/04 07:22:47;;;;;;;11.13;3.33;;;9.90;99.90;;;;;;5032345;28;20033;-73
2022/05/04 07:25:13;;;;;;;7.85;3.33;;;9.80;99.90;;;;;;5032831;28;20045;-73
2022/05/04 07:27:38;;;;;;;14.30;4.22;;;9.80;99.90;;;;;;5032445;28;20105;-72
2022/05/04 07:30:04;;;;;;;10.57;3.92;;;9.80;99.90;;;;;;5031849;28;20041;-73
2022/05/04 07:32:30;;;;;;;8.43;3.60;;;9.90;99.90;;;;;;5032702;28;20056;-73
2022/05/04 07:34:55;;;;;;;13.55;5.20;;;10.00;99.90;;;;;;5032683;28;20120;-72
2022/05/04 07:37:21;;;;;;;10.50;4.28;;;10.00;99.90;;;;;;5032050;28;20108;-73
2022/05/04 07:42:30;;;;;;;10.13;4.75;;;10.20;99.90;;;;;;5032764;28;20110;-73
2022/05/04 07:45:04;;;;;;;15.85;5.65;;;10.30;99.90;;;;;;5031722;28;20474;-72
2022/05/04 07:47:31;;;;;;;7.47;4.72;;;10.30;99.90;;;;;;5032575;28;20485;-72
2022/05/04 07:49:57;;;;;;;10.00;4.43;;;10.30;99.90;;;;;;5031501;28;20033;-73
2022/05/04 07:52:24;;;;;;;7.30;4.55;;;10.30;99.90;;;;;;5032600;28;20029;-72
2022/05/04 07:54:52;;;;;;;11.52;7.25;;;10.30;99.90;;;;;;5032124;28;20032;-72
2022/05/04 07:57:19;;;;;;;6.30;5.15;;;10.40;99.90;;;;;;5031557;28;20041;-73
2022/05/04 08:04:16;;;;;;;9.52;5.97;;;10.50;99.90;;;;;;5032441;28;20112;-73
2022/05/04 08:05:15;;;;;;;11.50;6.00;;;10.60;99.90;;;;;;5031573;28;20033;-73
2022/05/04 08:07:41;;;;;;;13.57;5.53;;;10.70;99.90;;;;;;5032147;28;20014;-72
2022/05/04 08:10:07;;;;;;;9.68;5.25;;;10.80;99.90;;;;;;5031773;28;20065;-73
2022/05/04 08:12:33;;;;;;;7.35;4.93;;;10.90;99.90;;;;;;5031518;28;20029;-73
2022/05/04 08:15:02;;;;;;;16.02;5.82;;;10.90;99.90;;;;;;5032161;28;20071;-73
2022/05/04 08:17:27;;;;;;;9.20;5.78;;;11.00;99.90;;;;;;5032044;28;20025;-72
2022/05/04 08:19:53;;;;;;;10.57;6.03;;;11.10;99.90;;;;;;5031083;28;20099;-72
2022/05/04 08:22:19;;;;;;;6.95;5.88;;;11.10;99.90;;;;;;5032110;28;20466;-72
2022/05/04 08:24:45;;;;;;;13.20;6.13;;;11.10;99.90;;;;;;5031941;28;20116;-73
2022/05/04 08:27:11;;;;;;;11.55;6.28;;;11.20;99.90;;;;;;5031308;28;20080;-73
2022/05/04 08:29:36;;;;;;;8.73;6.15;;;11.30;99.90;;;;;;5031997;28;20022;-73
2022/05/04 08:32:02;;;;;;;14.57;6.97;;;11.30;99.90;;;;;;5030905;28;20041;-73
2022/05/04 08:34:27;;;;;;;12.55;6.40;;;11.40;99.90;;;;;;5031761;28;20033;-72
2022/05/04 08:36:53;;;;;;;13.75;6.95;;;11.30;99.90;;;;;;5031491;28;20064;-73
2022/05/04 08:39:19;;;;;;;13.98;6.38;;;11.30;99.90;;;;;;5031027;28;20121;-72
2022/05/04 08:41:44;;;;;;;9.65;6.22;;;11.30;99.90;;;;;;5031979;28;20436;-73
2022/05/04 08:44:12;;;;;;;11.23;6.75;;;11.30;99.90;;;;;;5031510;28;20022;-74
2022/05/04 08:46:42;;;;;;;8.05;6.57;;;11.30;99.90;;;;;;5031066;28;20478;-73
2022/05/04 08:49:10;;;;;;;18.63;6.20;;;11.30;99.90;;;;;;5031413;28;20036;-73
2022/05/04 08:51:36;;;;;;;15.05;6.60;;;11.20;99.90;;;;;;5031652;28;20030;-73
2022/05/04 08:54:04;;;;;;;16.17;5.88;;;11.30;99.90;;;;;;5031098;28;20022;-73
2022/05/04 08:56:34;;;;;;;15.10;6.15;;;11.40;99.90;;;;;;5033345;28;20076;-73
2022/05/04 08:59:03;;;;;;;10.25;6.32;;;11.40;99.90;;;;;;5035752;28;20028;-73
2022/05/04 09:01:30;;;;;;;13.70;7.03;;;11.30;99.90;;;;;;5031429;28;20061;-73
2022/05/04 09:03:58;;;;;;;10.20;6.55;;;11.40;99.90;;;;;;5035355;28;20057;-73
2022/05/04 09:06:36;;;;;;;13.73;6.90;;;11.30;99.90;;;;;;5035979;28;20037;-73
2022/05/04 09:09:08;;;;;;;9.43;5.47;;;11.30;99.90;;;;;;5034991;28;20025;-73
2022/05/04 09:11:36;;;;;;;9.55;6.47;;;11.40;99.90;;;;;;5035708;28;20049;-73
2022/05/04 09:14:08;;;;;;;16.92;6.47;;;11.50;99.90;;;;;;5034679;28;20436;-74
2022/05/04 09:16:34;;;;;;;9.93;6.10;;;11.60;99.90;;;;;;5035340;28;20437;-73
2022/05/04 09:19:12;;;;;;;14.23;6.88;;;11.70;99.90;;;;;;5035285;28;20033;-73
2022/05/04 09:21:40;;;;;;;13.77;6.90;;;11.70;99.90;;;;;;5034627;28;20029;-73
2022/05/04 09:24:06;;;;;;;10.85;7.20;;;11.70;99.90;;;;;;5035019;28;20481;-74
2022/05/04 09:26:38;;;;;;;14.63;7.75;;;11.60;99.90;;;;;;5035257;28;20121;-73
2022/05/04 09:29:06;;;;;;;9.65;7.00;;;11.70;99.90;;;;;;5034182;28;20026;-73
2022/05/04 09:31:32;;;;;;;14.52;7.25;;;11.70;99.90;;;;;;5035441;28;20052;-73
2022/05/04 09:34:00;;;;;;;17.20;8.35;;;11.70;99.90;;;;;;5034973;28;20036;-73
2022/05/04 09:36:34;;;;;;;16.05;7.85;;;11.70;99.90;;;;;;5034504;28;20042;-73
2022/05/04 09:44:55;;;;;;;14.63;6.93;;;12.40;99.90;;;;;;5034590;28;20503;-72
2022/05/04 09:47:22;;;;;;;12.05;6.95;;;12.50;99.90;;;;;;5035003;28;20028;-73
2022/05/04 09:49:48;;;;;;;14.85;7.10;;;12.60;99.90;;;;;;5033819;28;20081;-73
2022/05/04 09:52:15;;;;;;;10.95;7.28;;;12.60;99.90;;;;;;5035014;28;20102;-73
2022/05/04 09:54:41;;;;;;;14.63;7.25;;;12.80;99.90;;;;;;5034657;28;20517;-73
2022/05/04 09:57:07;;;;;;;18.77;8.07;;;12.90;99.90;;;;;;5033626;28;20137;-73
2022/05/04 09:59:34;;;;;;;10.68;7.88;;;12.90;99.90;;;;;;5034707;28;20053;-73
2022/05/04 10:02:02;;;;;;;16.95;8.05;;;12.80;99.90;;;;;;5034258;28;20025;-73
2022/05/04 10:04:28;;;;;;;10.00;7.80;;;12.80;99.90;;;;;;5033866;28;20033;-73
2022/05/04 10:06:54;;;;;;;13.07;8.35;;;12.70;99.90;;;;;;5034480;28;20453;-73
2022/05/04 10:09:22;;;;;;;15.63;8.30;;;12.70;99.90;;;;;;5034600;28;20115;-73
2022/05/04 10:11:56;;;;;;;13.75;8.10;;;12.60;99.90;;;;;;5033737;28;20033;-73
2022/05/04 10:14:22;;;;;;;19.67;8.80;;;12.60;99.90;;;;;;5033032;28;20385;-73
2022/05/04 10:17:11;;;;;;;11.13;8.18;;;12.60;99.90;;;;;;5033976;28;20030;-73
2022/05/04 10:19:43;;;;;;;21.70;8.98;;;12.60;99.90;;;;;;5033818;28;20095;-73
2022/05/04 10:22:14;;;;;;;11.85;7.72;;;12.70;99.90;;;;;;5034038;28;20103;-73
2022/05/04 10:24:42;;;;;;;17.92;8.35;;;12.80;99.90;;;;;;5033633;28;20575;-72
2022/05/04 10:27:18;;;;;;;14.50;9.45;;;12.80;99.90;;;;;;5035773;28;20034;-73
2022/05/04 10:32:44;;;;;;;14.05;9.00;;;13.10;99.90;;;;;;5033677;28;20048;-72
2022/05/04 10:35:26;;;;;;;17.25;8.93;;;13.30;99.90;;;;;;5033842;28;20060;-73
2022/05/04 10:37:54;;;;;;;10.27;8.27;;;13.40;99.90;;;;;;5033766;28;20045;-73
2022/05/04 10:40:23;;;;;;;11.77;7.30;;;13.50;99.90;;;;;;5033218;28;20044;-72
2022/05/04 10:43:01;;;;;;;13.17;7.80;;;13.70;99.90;;;;;;5033848;28;20021;-73
2022/05/04 10:45:32;;;;;;;20.52;9.20;;;13.90;99.90;;;;;;5033636;28;20029;-72
2022/05/04 10:48:14;;;;;;;16.20;9.02;;;14.00;99.90;;;;;;5033594;28;20053;-73
2022/05/04 10:50:55;;;;;;;18.33;9.48;;;14.20;99.90;;;;;;5033794;28;20037;-72
2022/05/04 10:53:24;;;;;;;;;;;14.10;99.90;;;;;;5027419;28;20038;-70
2022/05/04 10:56:01;;;;;;;11.73;8.63;;;14.10;99.90;;;;;;5008194;28;19965;-71
2022/05/04 10:58:50;;;;;;;13.63;8.73;;;14.20;99.90;;;;;;5013401;28;20107;-70
2022/05/04 11:01:24;;;;;;;13.85;9.48;;;14.40;99.90;;;;;;5022666;28;20038;-70
2022/05/04 11:03:57;;;;;;;13.65;9.63;;;14.60;99.90;;;;;;5013751;28;20025;-69
2022/05/04 11:06:26;;;;;;;15.82;9.68;;;14.50;99.60;;;;;;5013184;28;20033;-69
2022/05/04 11:08:52;;;;;;;14.35;10.30;;;14.50;98.90;;;;;;5019363;28;20037;-70
2022/05/04 11:11:21;;;;;;;16.58;9.20;;;14.40;98.90;;;;;;5033252;28;20029;-71
2022/05/04 11:13:46;;;;;;;14.18;9.60;;;14.40;99.80;;;;;;5035466;28;20028;-73
2022/05/04 11:16:13;;;;;;;11.10;8.57;;;14.60;99.90;;;;;;5033261;28;20142;-72
2022/05/04 11:18:38;;;;;;;11.45;8.23;;;14.90;99.80;;;;;;5033225;28;20027;-72
2022/05/04 11:21:13;;;;;;;18.58;9.68;;;15.10;99.50;;;;;;5032048;28;20048;-73
2022/05/04 11:23:44;;;;;;;18.05;10.02;;;15.30;99.10;;;;;;5033135;28;20049;-72
2022/05/04 11:26:16;;;;;;;;;;;15.40;99.00;;;;;;5032582;28;20030;-72
2022/05/04 11:28:41;;;;;;;16.50;8.80;;;15.40;98.40;;;;;;5032324;28;20387;-72
2022/05/04 11:31:09;;;;;;;12.93;9.18;;;15.30;98.60;;;;;;5032429;28;20061;-73
2022/05/04 11:33:35;;;;;;;12.93;9.52;;;15.40;98.00;;;;;;5019632;28;20026;-69
2022/05/04 11:36:01;;;;;;;15.75;9.38;;;15.40;98.20;;;;;;5009874;28;20103;-70
2022/05/04 11:38:26;;;;;;;19.17;9.70;;;15.30;97.80;;;;;;5013038;28;20026;-69
2022/05/04 11:40:52;;;;;;;23.27;10.40;;;15.40;97.80;;;;;;5000925;28;20100;-70
2022/05/04 11:43:33;;;;;;;12.15;8.38;;;15.50;97.90;;;;;;4993689;28;20109;-70
2022/05/04 11:46:09;;;;;;;14.70;8.00;;;15.60;96.40;;;;;;4993676;28;20027;-69
2022/05/04 11:48:55;;;;;;;13.02;8.80;;;15.60;96.40;;;;;;4993248;28;20038;-69
2022/05/04 11:51:21;;;;;;;15.63;8.88;;;15.60;95.50;;;;;;4993469;28;20061;-69
2022/05/04 11:53:46;;;;;;;13.13;8.55;;;15.50;95.60;;;;;;4993199;28;20530;-68
2022/05/04 11:56:12;;;;;;;11.18;8.70;;;15.50;95.70;;;;;;4993796;28;20050;-70
2022/05/04 11:58:38;;;;;;;14.38;9.05;;;15.60;95.40;;;;;;5011981;28;20026;-69
2022/05/04 12:01:06;;;;;;;12.85;8.38;;;15.70;94.70;;;;;;5009707;28;20041;-70
2022/05/04 12:03:37;;;;;;;16.58;9.15;;;15.70;95.00;;;;;;5006730;28;20475;-74
2022/05/04 12:06:04;;;;;;;;;;;15.70;95.20;;;;;;5001276;28;20040;-73
2022/05/04 12:08:31;;;;;;;10.80;7.90;;;15.70;95.10;;;;;;4991032;28;20317;-73
2022/05/04 12:10:58;;;;;;;16.33;7.90;;;15.70;94.80;;;;;;4994318;28;20046;-71
2022/05/04 12:13:25;;;;;;;12.45;8.25;;;15.70;95.70;;;;;;5030032;28;20028;-73
2022/05/04 12:15:56;;;;;;;13.38;8.32;;;15.70;95.00;;;;;;5031197;28;20026;-72
2022/05/04 12:18:28;;;;;;;10.20;8.60;;;15.70;95.20;;;;;;5031732;28;20493;-69
2022/05/04 12:20:53;;;;;;;15.13;8.90;;;15.80;95.00;;;;;;5031963;28;20486;-72
2022/05/04 12:23:19;;;;;;;16.50;8.38;;;16.00;95.90;;;;;;5032307;28;20058;-72
2022/05/04 12:25:44;;;;;;;11.65;8.27;;;16.10;95.00;;;;;;5031441;28;20049;-72
2022/05/04 12:28:11;;;;;;;14.05;8.60;;;16.10;94.40;;;;;;5031982;28;20470;-72
2022/05/04 12:33:34;;;;;;;18.55;10.52;;;16.40;94.10;;;;;;5032138;28;20464;-71
2022/05/04 12:36:08;;;;;;;17.13;7.93;;;16.50;93.70;;;;;;5031413;28;20029;-71
2022/05/04 12:38:36;;;;;;;8.70;7.80;;;16.80;93.80;;;;;;5031649;28;20030;-73
2022/05/04 12:41:04;;;;;;;13.88;7.95;;;17.10;92.30;;;;;;5030411;28;20507;-72
2022/05/04 12:43:32;;;;;;;10.63;7.75;;;17.20;91.30;;;;;;5031218;28;20017;-73
2022/05/04 12:45:58;;;;;;;10.32;7.88;;;17.40;91.60;;;;;;5030045;28;20033;-73
2022/05/04 12:48:25;;;;;;;12.38;8.35;;;17.50;91.70;;;;;;5032001;28;20026;-71
2022/05/04 12:50:55;;;;;;;10.82;8.52;;;17.70;91.10;;;;;;5031593;28;20116;-71
2022/05/04 12:53:22;;;;;;;8.07;7.20;;;17.80;91.30;;;;;;5031153;28;20034;-71
2022/05/04 12:58:32;;;;;;;12.27;7.80;;;18.30;90.80;;;;;;5031487;28;20144;-71
2022/05/04 13:00:58;;;;;;;11.00;6.63;;;18.50;90.00;;;;;;5030927;28;20120;-72
2022/05/04 13:03:23;;;;;;;12.65;8.23;;;18.60;88.90;;;;;;5031852;28;20021;-72
2022/05/04 13:05:49;;;;;;;11.77;8.52;;;18.80;88.90;;;;;;5031257;28;20029;-72
2022/05/04 13:08:14;;;;;;;12.23;8.45;;;18.90;88.30;;;;;;5027371;28;20017;-72
2022/05/04 13:10:41;;;;;;;15.18;9.40;;;19.00;89.30;;;;;;5030854;28;20034;-71
2022/05/04 13:13:06;;;;;;;12.38;9.32;;;18.50;90.00;;;;;;5031339;28;20393;-72
2022/05/04 13:15:33;;;;;;;16.08;10.27;;;18.40;91.00;;;;;;5031046;28;20030;-73
2022/05/04 13:17:59;;;;;;;14.60;9.40;;;18.30;89.60;;;;;;5031357;28;20033;-72